Alisal, California
Current Conditions -  °F | °C
As of 10:02 AM on Saturday 25 Oct 2014 (Local Time) from KSNS Reporting Station
Light Rain Light Rain  
Wind Chill: 59°   Ceiling: 2800
Heat Index: 59°   Visibility: 3mi
Dew Point: 55°   Wind: 8mph
Humidity: 88%   Direction: 50°NE
Pressure: 30.08"   Gusts: NA
Location:  36.6786°N, 121.613°W
Report Text: KSNS 251702Z AUTO 05007KT 3SM -RA BR SCT017 BKN028 OVC036 15/13 A3008 RMK AO2 P0000
Loading
Personal Weather Stations






























Interactive Weather Map
Tropical Storm Tracking
New forecast layout! Learn more

10-Day Weather Forecast

Advertisements
Track Severe Weather on mobile